Time;durP1;ratioP1;P1;durP2;ratioP2;P2;SDS_P1;SDS_P2;PMS_P1;PMS_P2;Temp;Humidity;BMP_temperature;BMP_pressure;BME280_temperature;BME280_humidity;BME280_pressure;Samples;Min_cycle;Max_cycle;Signal;HPM_P1;HPM_P2
2023/10/28 00:00:16;;;;;;;2.10;0.60;;;;;;;13.95;67.00;95497.69;4904739;28;20734;-80
2023/10/28 00:02:41;;;;;;;0.50;0.45;;;;;;;14.23;65.98;95497.41;4921494;28;20274;-80
2023/10/28 00:05:07;;;;;;;0.40;0.35;;;;;;;14.24;66.09;95512.78;4894419;28;20213;-79
2023/10/28 00:07:32;;;;;;;2.03;0.50;;;;;;;14.03;66.24;95514.47;4910530;28;20274;-80
2023/10/28 00:09:58;;;;;;;0.30;0.30;;;;;;;14.11;66.15;95511.09;4924928;28;20189;-81
2023/10/28 00:12:24;;;;;;;1.75;0.45;;;;;;;14.11;66.64;95523.41;4894356;28;20230;-81
2023/10/28 00:14:50;;;;;;;0.25;0.25;;;;;;;14.04;66.12;95513.41;4892078;28;20173;-81
2023/10/28 00:17:17;;;;;;;0.82;0.38;;;;;;;13.73;66.88;95529.22;4910915;28;20276;-80
2023/10/28 00:19:43;;;;;;;0.43;0.32;;;;;;;13.75;66.32;95525.22;4904630;28;20218;-79
2023/10/28 00:22:08;;;;;;;0.65;0.30;;;;;;;13.82;65.88;95524.75;4882902;28;20188;-80
2023/10/28 00:24:33;;;;;;;0.40;0.30;;;;;;;13.76;65.97;95520.75;4896200;28;20255;-80
2023/10/28 00:26:59;;;;;;;1.02;0.30;;;;;;;13.82;66.08;95528.13;4928314;28;20196;-80
2023/10/28 00:29:24;;;;;;;0.80;0.40;;;;;;;13.88;65.66;95522.75;4895354;28;20277;-80
2023/10/28 00:31:50;;;;;;;0.38;0.38;;;;;;;14.05;65.67;95528.81;4893166;28;20570;-81
2023/10/28 00:34:17;;;;;;;1.70;0.40;;;;;;;13.96;65.97;95542.94;4928008;28;20193;-80
2023/10/28 00:36:42;;;;;;;1.65;0.40;;;;;;;13.81;66.37;95539.69;4928244;28;20272;-79
2023/10/28 00:39:08;;;;;;;0.30;0.30;;;;;;;13.96;65.59;95532.47;4926078;28;20261;-80
2023/10/28 00:41:35;;;;;;;1.10;0.70;;;;;;;14.00;65.30;95546.47;4907162;28;20205;-79
2023/10/28 00:44:01;;;;;;;0.50;0.40;;;;;;;13.91;65.68;95538.63;4906166;28;20287;-80
2023/10/28 00:46:28;;;;;;;0.63;0.22;;;;;;;13.66;66.27;95533.03;4887724;28;20298;-80
2023/10/28 00:48:56;;;;;;;1.10;0.40;;;;;;;13.75;66.18;95555.84;4895134;28;20397;-82
2023/10/28 00:51:22;;;;;;;0.93;0.30;;;;;;;13.90;65.55;95557.22;4895178;28;20115;-81
2023/10/28 00:53:47;;;;;;;1.17;0.40;;;;;;;13.63;66.28;95556.41;4911919;28;20299;-80
2023/10/28 00:56:13;;;;;;;1.27;0.30;;;;;;;13.71;65.78;95560.13;4911688;28;20194;-80
2023/10/28 00:58:39;;;;;;;0.60;0.60;;;;;;;13.82;65.62;95561.38;4908367;28;20290;-80
2023/10/28 01:01:06;;;;;;;1.40;0.32;;;;;;;13.46;66.31;95564.97;4913661;28;20226;-80
2023/10/28 01:03:31;;;;;;;0.63;0.50;;;;;;;13.53;66.09;95567.91;4892159;28;20184;-80
2023/10/28 01:06:00;;;;;;;0.75;0.30;;;;;;;13.73;65.86;95576.31;4909776;28;20305;-80
2023/10/28 01:08:25;;;;;;;1.52;0.40;;;;;;;13.60;65.94;95573.47;4908043;28;20390;-80
2023/10/28 01:10:51;;;;;;;1.05;0.40;;;;;;;13.62;65.99;95568.72;4892623;28;20283;-80
2023/10/28 01:13:16;;;;;;;2.35;0.50;;;;;;;13.79;65.39;95578.44;4908095;28;20359;-81
2023/10/28 01:15:42;;;;;;;1.15;0.40;;;;;;;13.83;65.52;95571.56;4891878;28;20212;-80
2023/10/28 01:18:10;;;;;;;2.33;0.90;;;;;;;13.76;65.33;95573.06;4907604;28;20282;-81
2023/10/28 01:20:35;;;;;;;2.38;0.50;;;;;;;13.95;65.73;95570.97;4876848;28;20038;-80
2023/10/28 01:23:01;;;;;;;0.80;0.50;;;;;;;13.82;65.05;95561.38;4906886;28;20185;-80
2023/10/28 01:25:27;;;;;;;1.90;0.50;;;;;;;13.58;65.60;95569.63;4923563;28;20311;-80
2023/10/28 01:27:53;;;;;;;2.90;0.93;;;;;;;13.46;66.23;95575.44;4910411;28;20169;-79
2023/10/28 01:30:18;;;;;;;2.13;0.45;;;;;;;13.73;64.43;95566.59;4926848;28;20286;-79
2023/10/28 01:32:44;;;;;;;1.60;0.43;;;;;;;13.58;65.01;95567.78;4891769;28;20188;-80
2023/10/28 01:35:10;;;;;;;1.85;0.30;;;;;;;13.67;64.55;95570.41;4924645;28;20672;-80
2023/10/28 01:37:37;;;;;;;1.10;0.50;;;;;;;13.37;65.54;95570.16;4891696;28;20204;-80
2023/10/28 01:40:09;;;;;;;2.03;0.50;;;;;;;13.52;64.79;95570.81;4892291;28;20195;-79
2023/10/28 01:42:35;;;;;;;2.15;0.60;;;;;;;13.46;64.99;95570.19;4894421;28;20218;-80
2023/10/28 01:45:00;;;;;;;1.63;0.50;;;;;;;13.58;65.25;95582.72;4883928;28;20194;-79
2023/10/28 01:47:26;;;;;;;1.05;0.60;;;;;;;13.61;65.27;95569.03;4891623;28;20204;-80
2023/10/28 01:49:51;;;;;;;1.10;0.43;;;;;;;13.70;65.26;95576.91;4907790;28;20138;-80
2023/10/28 01:52:18;;;;;;;1.30;0.63;;;;;;;13.82;64.25;95572.63;4907761;28;20651;-80
2023/10/28 01:54:44;;;;;;;1.02;0.55;;;;;;;13.81;65.19;95586.00;4892108;28;20748;-80
2023/10/28 01:57:10;;;;;;;0.95;0.60;;;;;;;13.79;64.44;95577.69;4891315;28;20569;-80
2023/10/28 01:59:39;;;;;;;1.48;0.63;;;;;;;13.87;64.69;95571.72;4876773;28;20368;-80
2023/10/28 02:02:04;;;;;;;1.83;1.20;;;;;;;13.81;64.49;95580.75;4905938;28;20186;-80
2023/10/28 02:04:31;;;;;;;2.63;0.70;;;;;;;13.83;64.98;95565.56;4925351;28;20687;-80
2023/10/28 02:06:57;;;;;;;1.77;0.75;;;;;;;13.84;64.56;95570.47;4890586;28;20238;-81
2023/10/28 02:09:23;;;;;;;1.35;0.98;;;;;;;13.87;64.72;95574.31;4920616;28;20199;-80
2023/10/28 02:11:52;;;;;;;3.40;0.90;;;;;;;13.76;64.81;95568.63;4911643;28;20661;-81
2023/10/28 02:14:18;;;;;;;5.10;1.30;;;;;;;13.88;65.08;95575.09;4927172;28;20553;-81
2023/10/28 02:16:43;;;;;;;3.05;1.42;;;;;;;13.83;64.84;95578.63;4891990;28;20267;-80
2023/10/28 02:19:09;;;;;;;2.85;1.25;;;;;;;13.79;65.66;95588.16;4889278;28;20287;-80
2023/10/28 02:21:35;;;;;;;1.85;1.40;;;;;;;13.93;65.16;95586.19;4912156;28;20212;-80
2023/10/28 02:24:03;;;;;;;3.08;1.70;;;;;;;13.88;65.42;95581.13;4890162;28;20595;-80
2023/10/28 02:26:33;;;;;;;3.35;1.60;;;;;;;13.76;65.63;95588.75;4907960;28;20629;-80
2023/10/28 02:29:00;;;;;;;2.17;1.40;;;;;;;13.77;65.86;95577.97;4907359;28;20200;-80
2023/10/28 02:31:25;;;;;;;1.40;1.30;;;;;;;13.75;65.92;95576.75;4894280;28;20226;-80
2023/10/28 02:33:50;;;;;;;5.35;1.52;;;;;;;13.75;66.25;95571.53;4907306;28;20318;-80
2023/10/28 02:36:16;;;;;;;3.85;1.58;;;;;;;13.91;65.98;95583.09;4901678;28;20200;-80
2023/10/28 02:38:41;;;;;;;4.38;1.73;;;;;;;13.85;65.92;95568.63;4907926;28;20177;-80
2023/10/28 02:41:07;;;;;;;4.53;1.15;;;;;;;13.97;65.36;95581.13;4891995;28;20258;-80
2023/10/28 02:43:35;;;;;;;4.07;1.73;;;;;;;13.99;65.69;95584.97;4910790;28;20200;-80
2023/10/28 02:46:04;;;;;;;3.58;1.17;;;;;;;13.97;65.91;95581.88;4903385;28;20170;-81
2023/10/28 02:48:30;;;;;;;4.15;1.63;;;;;;;13.93;65.82;95580.97;4898995;28;20189;-80
2023/10/28 02:50:55;;;;;;;1.77;1.02;;;;;;;13.94;65.90;95574.66;4915448;28;20195;-81
2023/10/28 02:53:21;;;;;;;2.80;1.40;;;;;;;13.76;66.46;95573.06;4900475;28;20676;-81
2023/10/28 02:55:46;;;;;;;4.50;1.45;;;;;;;13.90;65.57;95560.63;4906653;28;20575;-81
2023/10/28 02:58:12;;;;;;;3.30;0.90;;;;;;;13.89;66.14;95561.72;4909782;28;20278;-81
2023/10/28 03:00:37;;;;;;;3.65;1.30;;;;;;;13.62;66.60;95560.09;4906942;28;20095;-80
2023/10/28 03:03:03;;;;;;;2.55;1.20;;;;;;;13.79;66.96;95575.06;4907617;28;20703;-80
2023/10/28 03:05:29;;;;;;;2.97;1.02;;;;;;;13.83;66.28;95563.69;4903190;28;20272;-81
2023/10/28 03:07:55;;;;;;;2.05;1.05;;;;;;;13.81;65.81;95565.84;4880886;28;20200;-80
2023/10/28 03:10:20;;;;;;;2.33;1.27;;;;;;;13.81;66.12;95565.06;4911414;28;20223;-80
2023/10/28 03:12:46;;;;;;;2.17;1.50;;;;;;;13.81;66.42;95565.84;4919762;28;20699;-81
2023/10/28 03:15:12;;;;;;;5.07;1.35;;;;;;;13.78;66.79;95568.31;4892744;28;20285;-80
2023/10/28 03:17:38;;;;;;;4.25;1.40;;;;;;;13.87;66.07;95574.31;4880683;28;20282;-81
2023/10/28 03:20:05;;;;;;;2.95;1.17;;;;;;;13.87;65.74;95574.31;4907952;28;20243;-81
2023/10/28 03:22:31;;;;;;;4.60;1.42;;;;;;;13.92;65.69;95576.81;4894228;28;20281;-81
2023/10/28 03:24:56;;;;;;;3.70;1.30;;;;;;;13.93;65.72;95580.97;4910577;28;20170;-81
2023/10/28 03:27:22;;;;;;;3.38;1.73;;;;;;;13.91;65.76;95571.88;4901482;28;20214;-80
2023/10/28 03:29:49;;;;;;;3.88;1.33;;;;;;;13.41;67.58;95570.34;4918318;28;20165;-81
2023/10/28 03:32:15;;;;;;;5.13;1.35;;;;;;;13.64;66.55;95569.19;4924257;28;20334;-80
2023/10/28 03:34:40;;;;;;;4.07;1.67;;;;;;;13.80;65.89;95566.91;4913679;28;20382;-81
2023/10/28 03:37:05;;;;;;;4.03;1.52;;;;;;;13.95;65.93;95576.19;4891631;28;20203;-81
2023/10/28 03:39:31;;;;;;;5.93;1.83;;;;;;;13.87;66.49;95569.09;4906355;28;20194;-80
2023/10/28 03:41:57;;;;;;;3.08;1.42;;;;;;;13.85;66.21;95568.63;4915394;28;20290;-80
2023/10/28 03:44:22;;;;;;;3.80;1.67;;;;;;;13.81;66.31;95580.75;4925977;28;20229;-80
2023/10/28 03:46:47;;;;;;;4.03;1.35;;;;;;;13.94;65.87;95577.25;4924303;28;20721;-81
2023/10/28 03:49:13;;;;;;;4.95;2.03;;;;;;;13.77;66.58;95575.38;4912349;28;20205;-81
2023/10/28 03:51:41;;;;;;;6.72;2.20;;;;;;;13.68;66.74;95569.34;4893545;28;20698;-80
2023/10/28 03:54:07;;;;;;;6.25;1.50;;;;;;;13.81;66.04;95559.84;4893115;28;20212;-80
2023/10/28 03:56:32;;;;;;;7.60;2.40;;;;;;;13.73;66.41;95573.69;4912993;28;20191;-79
2023/10/28 03:58:58;;;;;;;3.85;1.80;;;;;;;13.66;66.67;95564.44;4912863;28;20688;-79
2023/10/28 04:01:23;;;;;;;6.30;1.60;;;;;;;13.86;66.29;95573.56;4879712;28;20187;-81
2023/10/28 04:03:49;;;;;;;7.65;1.55;;;;;;;13.77;66.44;95570.13;4908772;28;20290;-81
2023/10/28 04:06:14;;;;;;;6.80;1.45;;;;;;;13.97;66.26;95576.66;4892736;28;20192;-81
2023/10/28 04:08:40;;;;;;;3.55;1.83;;;;;;;13.89;66.33;95574.78;4893801;28;20251;-80
2023/10/28 04:11:05;;;;;;;3.17;1.52;;;;;;;13.81;66.21;95572.91;4909833;28;20695;-80
2023/10/28 04:13:32;;;;;;;3.90;1.30;;;;;;;13.86;65.88;95572.78;4901572;28;20255;-80
2023/10/28 04:15:57;;;;;;;3.35;1.52;;;;;;;13.88;65.71;95586.34;4909183;28;20369;-79
2023/10/28 04:18:22;;;;;;;5.32;1.85;;;;;;;13.80;66.21;95589.69;4909297;28;20271;-79
2023/10/28 04:20:50;;;;;;;6.28;1.48;;;;;;;13.96;65.85;95592.66;4897443;28;20583;-79
2023/10/28 04:23:16;;;;;;;5.40;2.22;;;;;;;13.73;66.52;95584.91;4924716;28;20242;-80
2023/10/28 04:25:42;;;;;;;6.85;1.70;;;;;;;13.79;66.34;95588.16;4911925;28;20079;-78
2023/10/28 04:28:07;;;;;;;8.68;1.73;;;;;;;13.86;65.92;95585.84;4928035;28;20205;-80
2023/10/28 04:30:33;;;;;;;5.60;1.90;;;;;;;13.86;65.86;95588.47;4912368;28;20172;-80
2023/10/28 04:32:58;;;;;;;2.67;1.30;;;;;;;13.89;65.98;95584.50;4929035;28;20539;-80
2023/10/28 04:35:23;;;;;;;8.10;2.03;;;;;;;13.97;65.60;95594.22;4892938;28;20736;-81
2023/10/28 04:37:49;;;;;;;5.22;1.38;;;;;;;13.75;66.80;95588.00;4909094;28;20216;-79
2023/10/28 04:40:14;;;;;;;4.40;2.13;;;;;;;13.98;65.56;95591.28;4909019;28;20639;-80
2023/10/28 04:42:40;;;;;;;5.25;1.80;;;;;;;13.82;66.39;95587.56;4909821;28;20217;-80
2023/10/28 04:45:06;;;;;;;5.50;1.45;;;;;;;13.85;66.08;95582.47;4895911;28;20282;-80
2023/10/28 04:47:32;;;;;;;4.95;1.60;;;;;;;13.88;65.94;95585.56;4928701;28;20188;-78
2023/10/28 04:49:58;;;;;;;7.10;1.80;;;;;;;13.74;66.51;95588.28;4909104;28;20358;-79
2023/10/28 04:52:23;;;;;;;8.23;2.13;;;;;;;13.91;65.60;95577.09;4893039;28;20212;-80
2023/10/28 04:54:49;;;;;;;6.25;2.15;;;;;;;13.86;65.80;95581.41;4892345;28;20177;-79
2023/10/28 04:57:14;;;;;;;3.63;1.27;;;;;;;14.00;65.69;95589.13;4908101;28;20684;-80
2023/10/28 04:59:40;;;;;;;4.68;1.60;;;;;;;13.95;65.42;95591.09;4899758;28;20208;-80
2023/10/28 05:02:06;;;;;;;3.58;1.38;;;;;;;13.75;66.13;95584.59;4892637;28;20161;-79
2023/10/28 05:04:31;;;;;;;4.22;1.40;;;;;;;13.85;65.80;95585.09;4891461;28;20298;-80
2023/10/28 05:06:56;;;;;;;5.60;1.20;;;;;;;13.81;66.12;95576.31;4907987;28;20706;-80
2023/10/28 05:09:22;;;;;;;13.88;2.08;;;;;;;13.90;65.49;95578.16;4902512;28;20206;-79
2023/10/28 05:11:51;;;;;;;5.10;1.15;;;;;;;14.00;65.27;95580.50;4904548;28;20208;-80
2023/10/28 05:14:16;;;;;;;6.55;1.38;;;;;;;14.01;64.85;95579.44;4924098;28;20138;-79
2023/10/28 05:16:42;;;;;;;6.53;1.42;;;;;;;13.98;65.07;95580.81;4927079;28;20290;-79
2023/10/28 05:19:08;;;;;;;4.13;1.40;;;;;;;14.04;65.22;95576.22;4901769;28;20362;-79
2023/10/28 05:21:34;;;;;;;4.03;1.23;;;;;;;13.74;65.85;95565.50;4920182;28;20195;-79
2023/10/28 05:23:59;;;;;;;2.97;1.25;;;;;;;13.72;66.21;95580.75;4891677;28;20246;-79
2023/10/28 05:26:26;;;;;;;3.28;1.20;;;;;;;13.82;65.84;95571.84;4911096;28;20215;-80
2023/10/28 05:28:54;;;;;;;5.55;1.35;;;;;;;13.83;65.43;95571.56;4923813;28;20213;-80
2023/10/28 05:31:19;;;;;;;2.97;1.33;;;;;;;13.93;64.98;95567.88;4910133;28;20219;-79
2023/10/28 05:33:44;;;;;;;4.68;1.27;;;;;;;13.97;65.47;95574.03;4904438;28;20382;-80
2023/10/28 05:36:10;;;;;;;4.07;1.38;;;;;;;13.62;65.83;95567.94;4907072;28;20370;-78
2023/10/28 05:38:35;;;;;;;6.18;1.38;;;;;;;13.98;65.32;95580.81;4910269;28;20079;-80
2023/10/28 05:41:00;;;;;;;4.28;1.42;;;;;;;13.88;65.97;95581.13;4890735;28;20207;-79
2023/10/28 05:43:26;;;;;;;6.38;1.20;;;;;;;13.92;65.47;95576.03;4910526;28;20693;-79
2023/10/28 05:45:51;;;;;;;5.97;1.38;;;;;;;13.95;64.89;95573.59;4903621;28;20256;-79
2023/10/28 05:48:17;;;;;;;3.60;1.23;;;;;;;13.89;65.35;95587.09;4899545;28;20246;-79
2023/10/28 05:50:42;;;;;;;4.40;1.23;;;;;;;13.78;65.32;95584.78;4913806;28;20689;-79
2023/10/28 05:53:08;;;;;;;6.05;1.27;;;;;;;13.75;65.77;95593.22;4929228;28;20387;-79
2023/10/28 05:55:33;;;;;;;4.22;1.30;;;;;;;13.76;65.92;95591.38;4908078;28;20171;-80
2023/10/28 05:57:58;;;;;;;6.32;1.45;;;;;;;13.86;65.12;95583.25;4902841;28;20204;-79
2023/10/28 06:00:24;;;;;;;2.65;1.40;;;;;;;13.80;65.49;95593.09;4886998;28;20194;-80
2023/10/28 06:02:50;;;;;;;2.60;1.13;;;;;;;13.83;66.09;95594.34;4889404;28;20338;-81
2023/10/28 06:05:15;;;;;;;3.45;1.00;;;;;;;13.97;64.93;95600.22;4895408;28;20294;-80
2023/10/28 06:07:47;;;;;;;4.18;1.38;;;;;;;13.77;65.64;95590.31;4914036;28;20679;-80
2023/10/28 06:10:12;;;;;;;3.72;1.15;;;;;;;13.88;66.33;95611.72;4915610;28;20223;-80
2023/10/28 06:12:38;;;;;;;5.60;1.05;;;;;;;13.82;65.54;95603.25;4902768;28;20157;-80
2023/10/28 06:15:03;;;;;;;2.47;1.70;;;;;;;13.83;65.49;95608.19;4909090;28;20708;-79
2023/10/28 06:17:29;;;;;;;4.97;0.98;;;;;;;13.74;66.43;95612.59;4910822;28;20256;-80
2023/10/28 06:19:54;;;;;;;2.85;1.10;;;;;;;14.01;65.18;95621.31;4895171;28;20199;-80
2023/10/28 06:22:20;;;;;;;3.22;1.40;;;;;;;14.05;65.67;95611.75;4923898;28;20279;-81
2023/10/28 06:24:45;;;;;;;3.60;1.00;;;;;;;13.84;66.15;95619.41;4910554;28;20202;-79
2023/10/28 06:27:10;;;;;;;4.43;1.00;;;;;;;13.93;65.68;95614.19;4893863;28;20207;-79
2023/10/28 06:29:37;;;;;;;3.08;1.00;;;;;;;13.96;65.56;95614.34;4908940;28;20123;-80
2023/10/28 06:32:03;;;;;;;3.50;1.10;;;;;;;13.93;66.20;95625.44;4890268;28;20630;-80
2023/10/28 06:34:28;;;;;;;2.50;0.90;;;;;;;13.93;65.34;95632.50;4918227;28;20184;-81
2023/10/28 06:36:54;;;;;;;3.38;1.20;;;;;;;13.76;66.19;95626.16;4906500;28;20334;-80
2023/10/28 06:39:20;;;;;;;2.38;1.10;;;;;;;13.89;66.20;95634.19;4893463;28;20699;-81
2023/10/28 06:41:45;;;;;;;4.90;1.35;;;;;;;13.92;65.56;95636.22;4911171;28;20164;-79
2023/10/28 06:44:10;;;;;;;6.32;1.20;;;;;;;13.98;65.48;95630.53;4909141;28;20216;-80
2023/10/28 06:46:36;;;;;;;2.40;1.60;;;;;;;13.97;65.64;95642.06;4897957;28;20626;-80
2023/10/28 06:49:02;;;;;;;3.88;1.00;;;;;;;13.99;65.19;95647.78;4906345;28;20120;-80
2023/10/28 06:51:27;;;;;;;3.67;1.52;;;;;;;13.97;66.03;95649.94;4922673;28;20705;-81
2023/10/28 06:53:53;;;;;;;2.63;0.82;;;;;;;13.89;66.39;95640.19;4891105;28;20634;-81
2023/10/28 06:56:18;;;;;;;6.82;1.20;;;;;;;13.62;66.70;95630.69;4878527;28;20160;-80
2023/10/28 06:58:43;;;;;;;1.80;0.68;;;;;;;14.01;65.75;95648.22;4910137;28;20127;-81
2023/10/28 07:01:09;;;;;;;4.18;1.35;;;;;;;14.02;65.71;95655.03;4893269;28;20792;-80
2023/10/28 07:03:38;;;;;;;2.72;1.10;;;;;;;13.76;66.54;95659.38;4890971;28;20623;-80
2023/10/28 07:06:14;;;;;;;3.70;0.80;;;;;;;14.03;65.81;95661.81;4913434;28;20196;-80
2023/10/28 07:08:40;;;;;;;4.65;1.60;;;;;;;13.95;66.25;95654.69;4907709;28;20199;-80
2023/10/28 07:11:05;;;;;;;3.08;0.98;;;;;;;14.15;65.73;95663.06;4907244;28;20649;-80
2023/10/28 07:13:30;;;;;;;4.07;1.13;;;;;;;14.04;65.49;95668.56;4925096;28;20271;-81
2023/10/28 07:16:17;;;;;;;3.20;1.38;;;;;;;13.95;66.90;95664.38;4893627;28;20192;-84
2023/10/28 07:18:43;;;;;;;4.75;0.90;;;;;;;14.06;65.92;95670.88;4904064;28;20186;-82
2023/10/28 07:21:08;;;;;;;2.50;1.13;;;;;;;14.05;65.85;95672.75;4905601;28;20615;-80
2023/10/28 07:23:34;;;;;;;4.18;1.50;;;;;;;14.09;65.82;95672.91;4924907;28;20701;-81
2023/10/28 07:26:01;;;;;;;3.85;1.08;;;;;;;14.10;65.78;95682.28;4919318;28;20281;-80
2023/10/28 07:28:33;;;;;;;5.65;1.23;;;;;;;14.01;66.23;95691.97;4922729;28;20274;-79
2023/10/28 07:30:59;;;;;;;3.60;0.90;;;;;;;14.17;65.89;95689.69;4913756;28;20105;-81
2023/10/28 07:33:25;;;;;;;5.00;1.20;;;;;;;14.14;65.78;95685.84;4925928;28;20583;-81
2023/10/28 07:35:51;;;;;;;4.40;1.35;;;;;;;14.19;66.32;95692.81;4918293;28;20173;-80
2023/10/28 07:38:17;;;;;;;2.40;0.85;;;;;;;13.97;66.18;95699.63;4929050;28;20192;-79
2023/10/28 07:40:47;;;;;;;5.60;1.00;;;;;;;14.16;65.84;95706.50;4899857;28;20209;-80
2023/10/28 07:43:13;;;;;;;3.50;0.93;;;;;;;14.04;66.40;95699.97;4911907;28;20218;-80
2023/10/28 07:45:41;;;;;;;2.92;1.45;;;;;;;14.00;66.74;95716.56;4913375;28;20358;-79
2023/10/28 07:48:11;;;;;;;5.20;1.38;;;;;;;14.23;66.33;95709.44;4893323;28;20361;-80
2023/10/28 07:50:37;;;;;;;4.85;1.55;;;;;;;14.27;65.85;95723.44;4915599;28;20322;-79
2023/10/28 07:53:04;;;;;;;3.53;1.20;;;;;;;14.30;65.21;95722.84;4894431;28;20280;-80
2023/10/28 07:55:30;;;;;;;3.25;1.58;;;;;;;14.27;65.93;95731.31;4897937;28;20030;-80
2023/10/28 07:57:55;;;;;;;3.88;0.85;;;;;;;14.36;65.50;95731.31;4928998;28;20169;-81
2023/10/28 08:00:22;;;;;;;5.63;1.33;;;;;;;14.23;66.04;95727.75;4929209;28;20774;-79
2023/10/28 08:02:48;;;;;;;5.18;1.35;;;;;;;14.35;65.66;95741.03;4914307;28;20242;-80
2023/10/28 08:05:13;;;;;;;5.65;1.17;;;;;;;14.47;65.17;95742.31;4910174;28;20189;-79
2023/10/28 08:07:39;;;;;;;3.38;0.90;;;;;;;14.57;64.69;95747.28;4909722;28;20169;-80
2023/10/28 08:10:05;;;;;;;2.70;0.90;;;;;;;14.60;64.52;95736.97;4912549;28;20275;-80
2023/10/28 08:12:31;;;;;;;3.78;1.10;;;;;;;14.67;64.18;95738.38;4910599;28;20282;-80
2023/10/28 08:14:59;;;;;;;2.15;1.35;;;;;;;14.73;64.42;95753.63;4918166;28;20255;-80
2023/10/28 08:17:24;;;;;;;4.40;1.25;;;;;;;14.64;64.22;95745.00;4926431;28;20364;-80
2023/10/28 08:19:50;;;;;;;3.13;1.35;;;;;;;14.56;64.76;95750.94;4930137;28;20346;-80
2023/10/28 08:22:15;;;;;;;2.53;1.00;;;;;;;14.52;63.98;95742.94;4929094;28;20313;-81
2023/10/28 08:24:41;;;;;;;3.13;1.23;;;;;;;14.66;64.75;95747.31;4892944;28;20178;-80
2023/10/28 08:27:08;;;;;;;6.03;1.15;;;;;;;14.53;65.23;95756.78;4894781;28;20195;-80
2023/10/28 08:29:33;;;;;;;4.13;1.17;;;;;;;14.59;64.73;95753.00;4910894;28;20357;-79
2023/10/28 08:31:59;;;;;;;4.43;1.10;;;;;;;14.64;64.92;95745.00;4911286;28;20241;-80
2023/10/28 08:34:25;;;;;;;5.00;1.20;;;;;;;14.77;64.19;95767.69;4912543;28;20633;-79
2023/10/28 08:36:51;;;;;;;4.25;1.50;;;;;;;14.81;64.70;95754.75;4910448;28;20690;-79
2023/10/28 08:39:17;;;;;;;3.08;1.63;;;;;;;14.79;64.04;95744.56;4912542;28;20197;-79
2023/10/28 08:41:42;;;;;;;5.63;1.20;;;;;;;14.78;64.05;95750.09;4893534;28;20112;-79
2023/10/28 08:44:08;;;;;;;2.97;1.30;;;;;;;14.83;64.93;95762.28;4908027;28;20213;-80
2023/10/28 08:46:37;;;;;;;3.05;1.17;;;;;;;14.69;64.26;95746.72;4928317;28;20215;-79
2023/10/28 08:49:04;;;;;;;5.57;1.30;;;;;;;14.76;63.81;95750.41;4927896;28;20227;-80
2023/10/28 08:51:31;;;;;;;6.60;1.48;;;;;;;14.90;64.68;95757.38;4924931;28;20224;-79
2023/10/28 08:53:59;;;;;;;5.10;1.33;;;;;;;15.07;63.75;95759.25;4885079;28;20203;-78
2023/10/28 08:56:25;;;;;;;3.75;1.08;;;;;;;14.86;64.42;95751.97;4909346;28;20201;-79
2023/10/28 08:58:52;;;;;;;4.93;1.25;;;;;;;14.81;64.27;95759.22;4924030;28;20256;-80
2023/10/28 09:01:22;;;;;;;3.22;1.25;;;;;;;15.12;64.09;95751.97;4912776;28;20747;-79
2023/10/28 09:03:52;;;;;;;5.72;1.25;;;;;;;15.15;64.09;95754.00;4912952;28;20255;-79
2023/10/28 09:06:19;;;;;;;5.32;1.60;;;;;;;15.26;63.85;95766.78;4902806;28;20165;-79
2023/10/28 09:08:44;;;;;;;5.07;1.30;;;;;;;15.38;63.30;95753.06;4927417;28;20207;-78
2023/10/28 09:11:10;;;;;;;4.75;1.20;;;;;;;15.39;63.09;95760.63;4912098;28;20186;-79
2023/10/28 09:13:36;;;;;;;4.55;1.13;;;;;;;15.25;62.87;95758.16;4889158;28;20172;-80
2023/10/28 09:16:03;;;;;;;4.60;1.40;;;;;;;15.34;62.35;95766.03;4907548;28;20296;-80
2023/10/28 09:18:39;;;;;;;3.60;1.35;;;;;;;15.35;63.05;95754.44;4898279;28;20169;-79
2023/10/28 09:21:09;;;;;;;7.07;1.58;;;;;;;15.27;62.85;95768.34;4916518;28;20241;-79
2023/10/28 09:23:35;;;;;;;4.63;1.33;;;;;;;15.33;62.23;95759.22;4911247;28;20276;-78
2023/10/28 09:26:00;;;;;;;3.95;1.15;;;;;;;15.12;63.79;95759.09;4892204;28;20200;-79
2023/10/28 09:28:26;;;;;;;4.78;1.65;;;;;;;15.17;63.39;95762.31;4910825;28;20168;-78
2023/10/28 09:30:51;;;;;;;3.85;1.70;;;;;;;15.36;62.95;95766.50;4926552;28;20180;-79
2023/10/28 09:33:19;;;;;;;4.53;1.40;;;;;;;15.42;62.32;95764.47;4926849;28;20199;-79
2023/10/28 09:35:46;;;;;;;7.10;2.10;;;;;;;15.48;63.29;95766.63;4926853;28;20729;-78
2023/10/28 09:38:12;;;;;;;7.10;1.20;;;;;;;15.60;64.03;95775.72;4890198;28;20204;-78
2023/10/28 09:40:38;;;;;;;3.90;1.55;;;;;;;15.48;63.85;95763.25;4906973;28;20188;-78
2023/10/28 09:43:04;;;;;;;5.20;1.20;;;;;;;15.89;62.96;95767.97;4907882;28;20689;-79
2023/10/28 09:45:30;;;;;;;7.32;1.50;;;;;;;15.76;62.87;95758.44;4894258;28;20230;-79
2023/10/28 09:48:02;;;;;;;7.85;2.17;;;;;;;15.77;62.45;95774.97;4891113;28;20165;-78
2023/10/28 09:50:31;;;;;;;4.00;1.88;;;;;;;15.91;61.41;95771.06;4880061;28;20203;-78
2023/10/28 09:52:57;;;;;;;6.22;1.65;;;;;;;15.93;61.70;95777.84;4910440;28;20294;-78
2023/10/28 09:55:35;;;;;;;5.35;1.40;;;;;;;16.10;60.98;95783.06;4894466;28;20208;-79
2023/10/28 09:58:10;;;;;;;7.10;1.70;;;;;;;15.98;60.68;95777.69;4913553;28;20315;-78
2023/10/28 10:00:37;;;;;;;6.15;1.63;;;;;;;15.78;61.91;95772.03;4891095;28;20212;-79
2023/10/28 10:03:36;;;;;;;7.28;1.77;;;;;;;15.93;60.60;95786.50;4899947;28;20714;-78
2023/10/28 10:06:02;;;;;;;5.28;1.10;;;;;;;15.99;59.73;95782.63;4907474;28;20642;-79
2023/10/28 10:08:28;;;;;;;7.85;1.38;;;;;;;15.96;60.30;95793.00;4919586;28;20168;-79
2023/10/28 10:10:58;;;;;;;4.50;1.67;;;;;;;15.95;60.52;95780.94;4925742;28;20290;-79
2023/10/28 10:13:23;;;;;;;8.43;2.08;;;;;;;15.64;61.40;95780.03;4904027;28;20161;-78
2023/10/28 10:16:03;;;;;;;4.80;1.50;;;;;;;15.86;61.69;95778.34;4906105;28;20701;-78
2023/10/28 10:18:37;;;;;;;4.90;1.40;;;;;;;15.90;61.61;95787.91;4925049;28;20599;-77
2023/10/28 10:21:12;;;;;;;3.83;1.30;;;;;;;15.98;60.91;95788.97;4906755;28;20224;-78
2023/10/28 10:23:44;;;;;;;7.15;1.77;;;;;;;16.00;60.14;95772.91;4925866;28;20237;-79
2023/10/28 10:26:25;;;;;;;6.18;1.33;;;;;;;15.97;61.46;95778.75;4893994;28;20326;-79
2023/10/28 10:28:52;;;;;;;5.20;1.52;;;;;;;15.73;61.93;95780.03;4894897;28;20696;-78
2023/10/28 10:31:19;;;;;;;6.78;2.15;;;;;;;15.84;61.92;95783.88;4915619;28;20624;-78
2023/10/28 10:33:46;;;;;;;4.80;1.40;;;;;;;15.75;61.70;95772.66;4900934;28;20173;-79
2023/10/28 10:36:17;;;;;;;8.00;1.77;;;;;;;16.04;60.73;95777.22;4889439;28;20239;-78
2023/10/28 10:38:43;;;;;;;6.55;2.00;;;;;;;15.95;61.90;95780.94;4895544;28;20625;-78
2023/10/28 10:41:09;;;;;;;4.72;1.20;;;;;;;16.14;61.19;95783.19;4914389;28;20359;-79
2023/10/28 10:43:37;;;;;;;4.18;1.48;;;;;;;16.10;61.43;95780.44;4900393;28;20254;-79
2023/10/28 10:46:03;;;;;;;6.32;1.58;;;;;;;16.12;61.00;95778.25;4908890;28;20238;-78
2023/10/28 10:48:31;;;;;;;3.53;1.52;;;;;;;16.18;62.01;95779.63;4908444;28;20255;-78
2023/10/28 10:50:57;;;;;;;5.47;1.80;;;;;;;16.10;60.59;95769.94;4909321;28;20223;-78
2023/10/28 10:53:22;;;;;;;7.68;1.48;;;;;;;15.85;60.97;95767.06;4890061;28;20655;-79
2023/10/28 10:55:48;;;;;;;4.88;2.38;;;;;;;16.05;60.97;95770.88;4907687;28;20211;-78
2023/10/28 10:58:13;;;;;;;2.88;1.25;;;;;;;16.18;60.59;95776.25;4885769;28;20193;-79
2023/10/28 11:00:39;;;;;;;5.82;1.58;;;;;;;16.12;60.44;95775.63;4901120;28;20561;-78
2023/10/28 11:03:07;;;;;;;3.47;1.25;;;;;;;16.06;60.29;95767.16;4902544;28;20196;-78
2023/10/28 11:05:32;;;;;;;5.95;1.50;;;;;;;15.98;60.94;95770.56;4888868;28;20120;-80
2023/10/28 11:07:58;;;;;;;8.32;1.85;;;;;;;15.94;61.42;95768.88;4897324;28;20645;-80
2023/10/28 11:10:25;;;;;;;7.78;2.08;;;;;;;16.15;61.26;95769.75;4921817;28;20215;-81
2023/10/28 11:12:50;;;;;;;5.88;1.40;;;;;;;16.14;60.40;95762.19;4913640;28;20551;-79
2023/10/28 11:15:16;;;;;;;6.25;1.67;;;;;;;16.22;60.25;95759.53;4929299;28;20268;-80
2023/10/28 11:17:42;;;;;;;6.55;1.55;;;;;;;16.06;60.55;95771.66;4911836;28;20199;-80
2023/10/28 11:20:09;;;;;;;6.20;1.42;;;;;;;16.16;60.08;95760.00;4895559;28;20259;-79
2023/10/28 11:22:36;;;;;;;5.47;1.40;;;;;;;16.22;60.30;95772.66;4897095;28;20200;-80
2023/10/28 11:25:04;;;;;;;4.95;1.52;;;;;;;16.07;59.65;95762.66;4913002;28;20246;-80
2023/10/28 11:27:30;;;;;;;5.45;1.13;;;;;;;16.15;60.68;95774.25;4912962;28;20315;-80
2023/10/28 11:29:57;;;;;;;7.70;1.58;;;;;;;16.25;60.72;95774.66;4913757;28;20302;-80